createdAt,value
2022-09-07T07:47:50.765Z,82.08
2022-09-07T07:50:33.742Z,80.75
2022-09-07T07:55:48.583Z,77.83
2022-09-07T07:58:15.226Z,74.70
2022-09-07T08:00:54.456Z,73.15
2022-09-07T08:03:23.498Z,72.88
2022-09-07T08:05:50.274Z,72.23
2022-09-07T08:08:16.863Z,70.41
2022-09-07T08:10:45.891Z,69.63
2022-09-07T08:13:12.487Z,70.97
2022-09-07T08:15:45.273Z,69.48
2022-09-07T08:18:17.045Z,69.54
2022-09-07T08:20:44.390Z,70.08
2022-09-07T08:23:11.744Z,71.49
2022-09-07T08:25:38.547Z,72.36
2022-09-07T08:28:06.060Z,73.38
2022-09-07T08:30:32.684Z,74.97
2022-09-07T08:32:59.368Z,74.74
2022-09-07T08:35:25.987Z,74.06
2022-09-07T08:37:52.557Z,74.23
2022-09-07T08:40:20.390Z,74.76
2022-09-07T08:43:12.242Z,74.88
2022-09-07T08:46:12.723Z,75.41
2022-09-07T08:48:40.226Z,74.30
2022-09-07T08:51:21.125Z,73.40
2022-09-07T08:53:50.647Z,73.75
2022-09-07T08:59:39.608Z,73.37
2022-09-07T09:02:32.864Z,72.42
2022-09-07T09:05:18.270Z,72.84
2022-09-07T09:07:54.826Z,72.37
2022-09-07T09:10:39.759Z,69.63
2022-09-07T09:13:48.995Z,69.02
2022-09-07T09:16:37.728Z,67.48
2022-09-07T09:19:28.480Z,66.09
2022-09-07T09:22:08.671Z,61.93
2022-09-07T09:24:41.168Z,57.75
2022-09-07T09:27:09.643Z,59.55
2022-09-07T09:29:36.311Z,60.85
2022-09-07T09:32:32.884Z,61.74
2022-09-07T09:35:24.232Z,62.82
2022-09-07T09:37:51.640Z,63.71
2022-09-07T09:40:37.326Z,64.63
2022-09-07T09:43:18.042Z,64.19
2022-09-07T09:46:17.818Z,62.26
2022-09-07T09:48:40.484Z,61.08
2022-09-07T09:54:14.061Z,53.51
2022-09-07T09:56:45.743Z,55.00
2022-09-07T10:05:34.375Z,43.12
2022-09-07T10:08:01.515Z,42.00
2022-09-07T10:10:29.621Z,45.55
2022-09-07T10:12:57.571Z,47.92
2022-09-07T10:15:40.497Z,50.49
2022-09-07T10:18:23.738Z,51.29
2022-09-07T10:20:50.491Z,53.05
2022-09-07T10:23:23.890Z,54.32
2022-09-07T10:25:52.815Z,55.93
2022-09-07T10:28:23.712Z,58.20
2022-09-07T10:31:17.226Z,62.46
2022-09-07T10:34:31.025Z,63.86
2022-09-07T10:37:01.382Z,62.88
2022-09-07T10:40:03.502Z,63.18
2022-09-07T10:42:35.834Z,64.49
2022-09-07T10:45:45.481Z,65.92
2022-09-07T10:48:21.213Z,66.90
2022-09-07T10:50:53.349Z,65.97
2022-09-07T10:53:41.708Z,65.75
2022-09-07T10:56:17.804Z,66.70
2022-09-07T10:59:04.098Z,65.21
2022-09-07T11:01:52.672Z,65.87
2022-09-07T11:04:38.552Z,66.62
2022-09-07T11:07:44.718Z,69.11
2022-09-07T11:10:29.881Z,70.63
2022-09-07T11:13:01.200Z,71.39
2022-09-07T11:15:32.439Z,73.22
2022-09-07T11:18:19.870Z,73.74
2022-09-07T11:20:57.925Z,73.60
2022-09-07T11:23:40.892Z,72.93
2022-09-07T11:26:28.414Z,72.28
2022-09-07T11:32:47.819Z,68.80
2022-09-07T11:35:46.680Z,69.32
2022-09-07T11:38:23.312Z,67.14
2022-09-07T11:41:08.837Z,67.64
2022-09-07T11:43:42.308Z,67.86
2022-09-07T11:46:34.156Z,67.78
2022-09-07T11:49:04.451Z,67.98
2022-09-07T11:51:53.748Z,66.63
2022-09-07T11:54:32.734Z,66.08
2022-09-07T11:57:20.463Z,66.43
2022-09-07T12:00:03.762Z,65.53
2022-09-07T12:03:00.735Z,65.86
2022-09-07T12:05:43.187Z,66.26
2022-09-07T12:08:18.443Z,67.08
2022-09-07T12:11:23.397Z,67.58
2022-09-07T12:14:08.517Z,68.75
2022-09-07T12:16:53.591Z,69.32
2022-09-07T12:19:25.767Z,70.10
2022-09-07T12:21:52.388Z,69.64
2022-09-07T12:24:53.740Z,68.89
2022-09-07T12:27:20.409Z,68.02
2022-09-07T12:30:11.365Z,68.68
2022-09-07T12:32:57.380Z,69.44
2022-09-07T12:35:25.189Z,69.96
2022-09-07T12:37:52.639Z,70.70
2022-09-07T12:40:32.377Z,71.41
2022-09-07T12:43:15.154Z,71.56
2022-09-07T12:45:43.184Z,72.04
2022-09-07T12:48:09.810Z,70.94
2022-09-07T12:50:54.887Z,71.41
2022-09-07T12:53:43.894Z,71.81
2022-09-07T12:56:27.748Z,70.86
2022-09-07T12:59:00.211Z,71.28
2022-09-07T13:01:36.056Z,71.93
2022-09-07T13:04:41.152Z,71.80
2022-09-07T13:07:30.525Z,72.89
2022-09-07T13:09:59.867Z,72.96
2022-09-07T13:12:58.070Z,71.94
2022-09-07T13:15:43.696Z,72.43
2022-09-07T13:18:29.468Z,72.21
2022-09-07T13:21:08.421Z,71.07
2022-09-07T13:23:38.599Z,69.94
2022-09-07T13:26:10.992Z,69.27
2022-09-07T13:29:14.488Z,69.86
2022-09-07T13:32:19.965Z,69.94
2022-09-07T13:35:04.975Z,69.96
2022-09-07T13:37:59.460Z,70.48
2022-09-07T13:40:35.576Z,70.10
2022-09-07T13:43:06.050Z,70.44
2022-09-07T13:45:45.436Z,70.13
2022-09-07T13:48:24.357Z,70.51
2022-09-07T13:51:00.847Z,70.74
2022-09-07T13:53:41.135Z,70.93
2022-09-07T13:56:13.919Z,71.17
2022-09-07T13:58:48.085Z,71.51
2022-09-07T14:01:28.054Z,71.62
2022-09-07T14:04:09.529Z,72.08
2022-09-07T14:06:38.672Z,73.07
2022-09-07T14:09:14.930Z,73.81
2022-09-07T14:11:47.270Z,74.27
2022-09-07T14:14:27.128Z,75.38
2022-09-07T14:17:01.759Z,76.35
2022-09-07T14:19:45.266Z,76.89
2022-09-07T14:22:20.581Z,77.95
2022-09-07T14:24:55.673Z,79.53
2022-09-07T14:27:26.346Z,81.78
2022-09-07T14:29:53.297Z,81.43
2022-09-07T14:32:25.174Z,82.66
2022-09-07T14:34:52.629Z,83.63
2022-09-07T14:37:22.427Z,84.04
2022-09-07T14:39:51.022Z,84.89
2022-09-07T14:42:23.604Z,84.95
2022-09-07T14:45:23.273Z,85.30
2022-09-07T14:47:55.195Z,85.13
2022-09-07T14:50:33.834Z,85.80
2022-09-07T14:56:02.597Z,85.82
2022-09-07T14:58:32.822Z,85.77
2022-09-07T15:04:17.935Z,85.87
2022-09-07T15:07:02.146Z,85.87
2022-09-07T15:09:37.530Z,86.06
2022-09-07T15:12:27.137Z,86.42
2022-09-07T15:15:10.635Z,86.66
2022-09-07T15:17:45.017Z,87.22
2022-09-07T15:20:30.415Z,87.21
2022-09-07T15:22:57.032Z,86.52
2022-09-07T15:25:23.641Z,86.70
2022-09-07T15:27:50.652Z,87.04
2022-09-07T15:30:17.729Z,86.58
2022-09-07T15:32:44.449Z,86.71
2022-09-07T15:35:11.173Z,86.54
2022-09-07T15:40:25.819Z,86.94
2022-09-07T15:43:02.024Z,87.20
2022-09-07T15:45:32.769Z,87.30
2022-09-07T15:47:59.513Z,87.26
2022-09-07T15:50:26.104Z,87.78
2022-09-07T15:52:52.743Z,87.94
2022-09-07T15:55:19.348Z,88.30
2022-09-07T15:57:52.700Z,87.87
2022-09-07T16:00:21.533Z,87.84
2022-09-07T16:03:06.159Z,88.10
2022-09-07T16:05:33.786Z,88.15
2022-09-07T16:10:55.205Z,87.95
2022-09-07T16:13:24.268Z,88.10
2022-09-07T16:15:51.693Z,87.97
2022-09-07T16:18:18.737Z,87.28
2022-09-07T16:20:45.667Z,87.04
2022-09-07T16:23:17.709Z,86.75
2022-09-07T16:25:57.162Z,86.25
2022-09-07T16:28:24.345Z,86.41
2022-09-07T16:30:51.015Z,86.52
2022-09-07T16:33:17.648Z,86.21
2022-09-07T16:35:45.073Z,86.02
2022-09-07T16:41:00.627Z,86.55
2022-09-07T16:43:33.380Z,86.68
2022-09-07T16:46:05.345Z,86.71
2022-09-07T16:48:34.228Z,86.75
2022-09-07T16:51:02.765Z,86.84
2022-09-07T16:53:32.884Z,86.92
2022-09-07T16:56:16.963Z,86.95
2022-09-07T16:58:49.036Z,86.71
2022-09-07T17:01:19.354Z,86.77
2022-09-07T17:03:46.812Z,87.41
2022-09-07T17:06:15.394Z,86.64
2022-09-07T17:08:42.664Z,87.22
2022-09-07T17:11:12.788Z,87.16
2022-09-07T17:13:41.520Z,87.39
2022-09-07T17:16:10.808Z,87.37
2022-09-07T17:21:33.278Z,88.11
2022-09-07T17:24:01.797Z,88.06
2022-09-07T17:26:30.676Z,88.08
2022-09-07T17:29:00.248Z,88.52
2022-09-07T17:34:19.953Z,88.13
2022-09-07T17:36:47.042Z,88.26
2022-09-07T17:39:16.480Z,88.03
2022-09-07T17:41:46.596Z,88.30
2022-09-07T17:44:13.244Z,88.32
2022-09-07T17:46:39.969Z,88.46
2022-09-07T17:49:10.394Z,88.21
2022-09-07T17:51:37.156Z,88.58
2022-09-07T17:54:13.204Z,88.32
2022-09-07T17:56:41.708Z,88.22
2022-09-07T18:02:13.923Z,88.11
2022-09-07T18:04:43.504Z,88.50
2022-09-07T18:07:22.900Z,88.24
2022-09-07T18:09:49.539Z,88.31
2022-09-07T18:12:16.169Z,88.66
2022-09-07T18:14:44.673Z,88.74
2022-09-07T18:17:11.391Z,88.46
2022-09-07T18:19:38.529Z,88.62
2022-09-07T18:22:06.004Z,88.63
2022-09-07T18:24:32.766Z,88.61
2022-09-07T18:26:59.891Z,88.69
2022-09-07T18:29:31.166Z,88.49
2022-09-07T18:32:01.328Z,88.90
2022-09-07T18:34:43.993Z,89.39
2022-09-07T18:37:14.147Z,89.63
2022-09-07T18:39:42.102Z,89.66
2022-09-07T18:42:32.488Z,89.54
2022-09-07T18:47:46.615Z,89.22
2022-09-07T18:50:14.434Z,88.93
2022-09-07T18:53:07.533Z,88.92
2022-09-07T18:55:30.828Z,88.87
2022-09-07T18:57:57.503Z,88.83
2022-09-07T19:00:24.221Z,89.01
2022-09-07T19:02:51.912Z,89.71
2022-09-07T19:08:06.997Z,89.47
2022-09-07T19:10:35.936Z,90.12
2022-09-07T19:13:05.039Z,90.13
2022-09-07T19:15:37.588Z,90.13
2022-09-07T19:18:13.677Z,90.36
2022-09-07T19:20:41.030Z,89.88
2022-09-07T19:23:07.662Z,90.34
2022-09-07T19:25:34.350Z,90.47
2022-09-07T19:28:01.003Z,90.02
2022-09-07T19:30:28.083Z,90.45
2022-09-07T19:32:54.763Z,90.33
2022-09-07T19:35:21.469Z,90.42
2022-09-07T19:37:48.509Z,90.65
2022-09-07T19:40:19.103Z,90.69
2022-09-07T19:42:46.359Z,90.23
2022-09-07T19:45:16.664Z,90.31
2022-09-07T19:47:43.323Z,90.77
2022-09-07T19:50:14.136Z,90.72
2022-09-07T19:52:40.758Z,90.98
2022-09-07T19:55:07.807Z,90.82
2022-09-07T19:57:35.201Z,90.73
2022-09-07T20:00:01.922Z,91.06
2022-09-07T20:02:28.508Z,91.24
2022-09-07T20:04:57.072Z,90.83
2022-09-07T20:07:26.254Z,91.04
2022-09-07T20:09:53.179Z,91.40
2022-09-07T20:12:20.645Z,91.05
2022-09-07T20:14:47.257Z,90.98
2022-09-07T20:17:13.828Z,90.86
2022-09-07T20:19:40.493Z,90.90
2022-09-07T20:22:07.075Z,90.97
2022-09-07T20:24:35.273Z,91.32
2022-09-07T20:27:03.859Z,91.16
2022-09-07T20:29:31.597Z,91.39
2022-09-07T20:32:01.604Z,91.37
2022-09-07T20:34:30.918Z,91.42
2022-09-07T20:36:57.537Z,91.15
2022-09-07T20:39:24.315Z,91.33
2022-09-07T20:41:51.507Z,91.62
2022-09-07T20:44:19.359Z,91.61
2022-09-07T20:46:45.964Z,91.55
2022-09-07T20:49:13.465Z,91.79
2022-09-07T20:51:40.072Z,91.58
2022-09-07T20:54:10.214Z,91.62
2022-09-07T20:56:36.824Z,91.68
2022-09-07T20:59:03.818Z,91.63
2022-09-07T21:01:32.481Z,91.44
2022-09-07T21:04:02.180Z,91.63
2022-09-07T21:06:30.909Z,91.69
2022-09-07T21:08:57.919Z,91.71
2022-09-07T21:11:31.237Z,91.91
2022-09-07T21:14:11.441Z,92.02
2022-09-07T21:16:39.296Z,92.13
2022-09-07T21:19:09.143Z,92.29
2022-09-07T21:21:39.336Z,92.61
2022-09-07T21:24:16.692Z,92.57
2022-09-07T21:26:43.267Z,92.23
2022-09-07T21:29:17.033Z,92.53
2022-09-07T21:31:43.880Z,92.13
2022-09-07T21:34:10.824Z,92.11
2022-09-07T21:36:37.555Z,92.15
2022-09-07T21:39:05.259Z,91.89
2022-09-07T21:41:31.817Z,91.82
2022-09-07T21:44:01.324Z,91.68
2022-09-07T21:46:30.151Z,91.94
2022-09-07T21:48:58.354Z,92.19
2022-09-07T21:51:26.588Z,91.79
2022-09-07T21:54:00.840Z,91.74
2022-09-07T21:56:29.634Z,91.59
2022-09-07T21:58:58.288Z,91.36
2022-09-07T22:01:27.451Z,91.68
2022-09-07T22:03:57.715Z,91.51
2022-09-07T22:06:25.199Z,91.91
2022-09-07T22:08:52.327Z,91.87
2022-09-07T22:11:21.215Z,92.13
2022-09-07T22:13:48.136Z,92.01
2022-09-07T22:16:15.530Z,92.26
2022-09-07T22:18:46.194Z,92.44
2022-09-07T22:21:24.871Z,92.50
2022-09-07T22:23:54.792Z,92.29
2022-09-07T22:26:23.847Z,92.47
2022-09-07T22:28:51.323Z,92.15
2022-09-07T22:31:29.835Z,92.27
2022-09-07T22:33:59.329Z,92.23
2022-09-07T22:36:29.048Z,92.19
2022-09-07T22:39:02.338Z,92.33
2022-09-07T22:41:31.938Z,92.40
2022-09-07T22:44:02.692Z,92.25
2022-09-07T22:46:31.298Z,92.25
2022-09-07T22:48:58.952Z,92.57
2022-09-07T22:51:26.870Z,92.21
2022-09-07T22:53:56.348Z,91.97
2022-09-07T22:56:25.681Z,92.20
2022-09-07T22:59:00.016Z,92.87
2022-09-07T23:01:28.733Z,92.86
2022-09-07T23:03:56.284Z,92.77
2022-09-07T23:06:40.058Z,92.88
2022-09-07T23:09:12.472Z,93.33
2022-09-07T23:11:39.536Z,93.04
2022-09-07T23:14:11.687Z,93.63
2022-09-07T23:16:39.140Z,93.49
2022-09-07T23:19:05.777Z,93.38
2022-09-07T23:21:33.118Z,93.74
2022-09-07T23:24:00.331Z,93.29
2022-09-07T23:26:29.677Z,93.80
2022-09-07T23:28:58.692Z,93.30
2022-09-07T23:31:26.742Z,93.40
2022-09-07T23:33:53.760Z,93.86
2022-09-07T23:36:22.822Z,93.55
2022-09-07T23:38:49.835Z,93.64
2022-09-07T23:41:20.213Z,93.84
2022-09-07T23:43:46.814Z,94.19
2022-09-07T23:46:14.421Z,94.22
2022-09-07T23:48:43.675Z,94.26
2022-09-07T23:51:10.761Z,93.86
2022-09-07T23:53:37.704Z,93.96
2022-09-07T23:56:04.589Z,94.34
2022-09-07T23:58:31.456Z,94.75
